Time;durP1;ratioP1;P1;durP2;ratioP2;P2;SDS_P1;SDS_P2;PMS_P1;PMS_P2;Temp;Humidity;BMP_temperature;BMP_pressure;BME280_temperature;BME280_humidity;BME280_pressure;Samples;Min_cycle;Max_cycle;Signal;HPM_P1;HPM_P2
2022/01/07 00:01:15;;;;;;;1.33;1.23;;;4.10;99.90;;;;;;5066706;28;20466;-67
2022/01/07 00:03:42;;;;;;;1.70;0.90;;;4.10;99.90;;;;;;5060982;28;20481;-67
2022/01/07 00:06:09;;;;;;;4.23;1.73;;;4.00;99.90;;;;;;5065765;28;21336;-68
2022/01/07 00:08:37;;;;;;;1.20;0.90;;;4.10;99.90;;;;;;5061850;28;20472;-68
2022/01/07 00:11:04;;;;;;;2.03;1.10;;;4.10;99.90;;;;;;5059894;28;20865;-68
2022/01/07 00:13:31;;;;;;;3.33;1.93;;;4.20;99.90;;;;;;5054363;28;20560;-67
2022/01/07 00:15:58;;;;;;;5.90;1.60;;;4.20;99.90;;;;;;5058091;28;20459;-67
2022/01/07 00:18:25;;;;;;;4.03;2.73;;;4.20;99.90;;;;;;5062019;28;20444;-68
2022/01/07 00:20:53;;;;;;;3.53;0.87;;;4.20;99.90;;;;;;5057814;28;20493;-68
2022/01/07 00:23:20;;;;;;;2.70;2.10;;;4.20;99.90;;;;;;5058523;28;21077;-68
2022/01/07 00:25:49;;;;;;;1.93;1.10;;;4.20;99.90;;;;;;5057239;28;21364;-67
2022/01/07 00:28:16;;;;;;;3.00;1.90;;;4.20;99.90;;;;;;5049174;28;20460;-68
2022/01/07 00:30:43;;;;;;;1.50;1.10;;;4.20;99.90;;;;;;5059418;28;20433;-68
2022/01/07 00:33:11;;;;;;;1.87;1.57;;;4.20;99.90;;;;;;5062191;28;21058;-68
2022/01/07 00:35:38;;;;;;;2.77;1.70;;;4.20;99.90;;;;;;5060082;28;20545;-67
2022/01/07 00:38:06;;;;;;;1.97;1.77;;;4.20;99.90;;;;;;5061420;28;20532;-68
2022/01/07 00:40:33;;;;;;;22.83;2.43;;;4.20;99.90;;;;;;5064855;28;22942;-68
2022/01/07 00:43:02;;;;;;;4.40;1.63;;;4.30;99.90;;;;;;5060943;28;20457;-68
2022/01/07 00:45:29;;;;;;;4.50;2.00;;;4.30;99.90;;;;;;5061363;28;20612;-68
2022/01/07 00:47:57;;;;;;;3.00;1.80;;;4.40;99.90;;;;;;5056704;28;21521;-68
2022/01/07 00:50:26;;;;;;;1.87;1.77;;;4.40;99.90;;;;;;5054653;28;20470;-68
2022/01/07 00:52:53;;;;;;;4.00;1.47;;;4.30;99.90;;;;;;5055748;28;21330;-68
2022/01/07 00:55:20;;;;;;;2.20;1.40;;;4.20;99.90;;;;;;5059264;28;20482;-67
2022/01/07 00:57:49;;;;;;;1.53;1.43;;;4.20;99.90;;;;;;5059879;28;20546;-69
2022/01/07 01:00:20;;;;;;;1.87;1.53;;;4.20;99.90;;;;;;5062447;28;21511;-68
2022/01/07 01:02:47;;;;;;;2.57;1.57;;;4.20;99.90;;;;;;5061230;28;20532;-68
2022/01/07 01:05:15;;;;;;;2.50;1.93;;;4.30;99.90;;;;;;5063023;28;20459;-68
2022/01/07 01:07:43;;;;;;;1.80;1.70;;;4.30;99.90;;;;;;5063839;28;20591;-68
2022/01/07 01:10:11;;;;;;;1.90;1.70;;;4.30;99.90;;;;;;5065773;28;20502;-67
2022/01/07 01:12:40;;;;;;;4.60;4.20;;;4.30;99.90;;;;;;5050312;28;20634;-67
2022/01/07 01:15:09;;;;;;;7.80;1.33;;;4.30;99.90;;;;;;5058685;28;21018;-67
2022/01/07 01:17:38;;;;;;;1.23;1.13;;;4.30;99.90;;;;;;5060102;28;20810;-67
2022/01/07 01:20:08;;;;;;;1.43;1.33;;;4.30;99.90;;;;;;5048472;28;20490;-68
2022/01/07 01:22:35;;;;;;;8.10;1.73;;;4.30;99.90;;;;;;5059293;28;21146;-67
2022/01/07 01:25:02;;;;;;;2.40;1.70;;;4.30;99.90;;;;;;5059325;28;20557;-68
2022/01/07 01:27:29;;;;;;;3.37;1.70;;;4.30;99.90;;;;;;5064964;28;20550;-67
2022/01/07 01:29:56;;;;;;;5.07;1.70;;;4.30;99.90;;;;;;5059007;28;20480;-67
2022/01/07 01:32:23;;;;;;;1.40;1.10;;;4.30;99.90;;;;;;5052175;28;20621;-68
2022/01/07 01:34:51;;;;;;;3.27;1.00;;;4.30;99.90;;;;;;5049016;28;21284;-67
2022/01/07 01:37:18;;;;;;;5.23;2.30;;;4.40;99.90;;;;;;5061691;28;20433;-68
2022/01/07 01:39:45;;;;;;;3.23;1.27;;;4.30;99.90;;;;;;5069525;28;20472;-67
2022/01/07 01:42:12;;;;;;;22.57;1.83;;;4.30;99.90;;;;;;5057978;28;20578;-68
2022/01/07 01:44:39;;;;;;;2.57;2.40;;;4.20;99.90;;;;;;5051771;28;20467;-68
2022/01/07 01:47:06;;;;;;;1.57;1.20;;;4.30;99.90;;;;;;5048275;28;20545;-67
2022/01/07 01:49:33;;;;;;;3.57;1.47;;;4.20;99.90;;;;;;5051734;28;20424;-67
2022/01/07 01:52:02;;;;;;;1.47;1.00;;;4.20;99.90;;;;;;5055066;28;20449;-67
2022/01/07 01:54:29;;;;;;;1.67;1.57;;;4.20;99.90;;;;;;5059240;28;20481;-68
2022/01/07 01:56:56;;;;;;;2.90;1.53;;;4.20;99.90;;;;;;5065007;28;20461;-68
2022/01/07 01:59:24;;;;;;;9.03;2.90;;;4.30;99.90;;;;;;5061895;28;21371;-68
2022/01/07 02:01:51;;;;;;;3.37;1.97;;;4.30;99.90;;;;;;5047948;28;20653;-68
2022/01/07 02:04:19;;;;;;;0.90;0.70;;;4.30;99.90;;;;;;5049808;28;20681;-68
2022/01/07 02:06:46;;;;;;;4.60;2.87;;;4.40;99.90;;;;;;5039515;28;20539;-68
2022/01/07 02:09:14;;;;;;;1.00;0.80;;;4.50;99.90;;;;;;5045513;28;21046;-67
2022/01/07 02:11:41;;;;;;;0.90;0.63;;;4.40;99.90;;;;;;5058240;28;20436;-68
2022/01/07 02:14:08;;;;;;;1.70;1.60;;;4.30;99.90;;;;;;5055966;28;20997;-68
2022/01/07 02:16:35;;;;;;;2.33;0.90;;;4.30;99.90;;;;;;5049621;28;21291;-68
2022/01/07 02:19:02;;;;;;;2.27;2.07;;;4.30;99.90;;;;;;5061280;28;22475;-67
2022/01/07 02:21:31;;;;;;;2.27;2.07;;;4.30;99.90;;;;;;5054094;28;20465;-68
2022/01/07 02:23:58;;;;;;;2.70;2.47;;;4.30;99.90;;;;;;5049817;28;20522;-68
2022/01/07 02:26:25;;;;;;;1.30;1.20;;;4.20;99.90;;;;;;5051446;28;20489;-68
2022/01/07 02:28:52;;;;;;;5.23;1.73;;;4.30;99.90;;;;;;5050154;28;20879;-68
2022/01/07 02:31:19;;;;;;;2.40;1.30;;;4.30;99.90;;;;;;5061639;28;20470;-67
2022/01/07 02:33:46;;;;;;;2.20;1.10;;;4.30;99.90;;;;;;5060004;28;21413;-68
2022/01/07 02:36:13;;;;;;;3.00;2.57;;;4.30;99.90;;;;;;5056797;28;20761;-68
2022/01/07 02:38:42;;;;;;;6.07;1.30;;;4.40;99.90;;;;;;5050046;28;20429;-67
2022/01/07 02:41:09;;;;;;;2.07;1.87;;;4.50;99.90;;;;;;5061741;28;21023;-68
2022/01/07 02:43:36;;;;;;;1.50;1.40;;;4.40;99.90;;;;;;5048028;28;20456;-68
2022/01/07 02:46:03;;;;;;;1.60;1.00;;;4.30;99.90;;;;;;5061620;28;20493;-67
2022/01/07 02:48:30;;;;;;;2.60;1.43;;;4.30;99.90;;;;;;5050124;28;20586;-67
2022/01/07 02:50:57;;;;;;;2.17;1.30;;;4.20;99.90;;;;;;5051680;28;20532;-68
2022/01/07 02:53:24;;;;;;;2.80;1.70;;;4.10;99.90;;;;;;5051977;28;20570;-68
2022/01/07 02:55:52;;;;;;;4.50;1.53;;;4.20;99.90;;;;;;5059017;28;20511;-68
2022/01/07 02:58:19;;;;;;;1.63;1.53;;;4.30;99.90;;;;;;5043575;28;20461;-68
2022/01/07 03:00:47;;;;;;;19.93;2.30;;;4.30;99.90;;;;;;5055925;28;20437;-67
2022/01/07 03:03:14;;;;;;;9.80;1.17;;;4.10;99.90;;;;;;5052680;28;20911;-67
2022/01/07 03:05:42;;;;;;;3.63;2.30;;;4.10;99.90;;;;;;5058452;28;20963;-67
2022/01/07 03:08:10;;;;;;;3.43;2.47;;;4.00;99.90;;;;;;5046952;28;21057;-67
2022/01/07 03:10:37;;;;;;;1.77;1.00;;;4.00;99.90;;;;;;5051098;28;20491;-68
2022/01/07 03:13:06;;;;;;;1.27;1.10;;;3.90;99.90;;;;;;5053235;28;20573;-68
2022/01/07 03:15:37;;;;;;;2.07;1.53;;;3.80;99.90;;;;;;5054066;28;20559;-67
2022/01/07 03:18:04;;;;;;;1.70;1.07;;;3.80;99.90;;;;;;5059119;28;20461;-68
2022/01/07 03:20:37;;;;;;;6.60;2.03;;;3.80;99.90;;;;;;5054029;28;20455;-68
2022/01/07 03:23:05;;;;;;;1.53;1.33;;;3.80;99.90;;;;;;5049621;28;20457;-67
2022/01/07 03:25:32;;;;;;;2.33;1.70;;;3.70;99.90;;;;;;5060952;28;20420;-67
2022/01/07 03:27:59;;;;;;;2.23;1.60;;;3.70;99.90;;;;;;5053356;28;20478;-68
2022/01/07 03:30:27;;;;;;;3.33;1.80;;;3.80;99.90;;;;;;5059372;28;20487;-68
2022/01/07 03:32:54;;;;;;;2.23;1.50;;;3.80;99.90;;;;;;5052050;28;20565;-67
2022/01/07 03:35:21;;;;;;;2.03;1.83;;;3.70;99.90;;;;;;5046499;28;21978;-67
2022/01/07 03:37:49;;;;;;;6.03;3.13;;;3.60;99.90;;;;;;5060498;28;20429;-67
2022/01/07 03:40:17;;;;;;;2.13;1.77;;;3.60;99.90;;;;;;5063955;28;20860;-68
2022/01/07 03:42:45;;;;;;;4.23;2.20;;;3.60;99.90;;;;;;5048294;28;20483;-67
2022/01/07 03:45:13;;;;;;;2.13;1.37;;;3.70;99.90;;;;;;5050506;28;20811;-68
2022/01/07 03:47:41;;;;;;;1.37;1.20;;;3.70;99.90;;;;;;5050484;28;20453;-67
2022/01/07 03:50:11;;;;;;;4.50;3.27;;;3.60;99.90;;;;;;5063251;28;20965;-68
2022/01/07 03:52:38;;;;;;;3.13;1.70;;;3.60;99.90;;;;;;5057523;28;20583;-67
2022/01/07 03:55:08;;;;;;;2.53;1.63;;;3.60;99.90;;;;;;5058462;28;20445;-69
2022/01/07 03:57:35;;;;;;;2.53;1.60;;;3.60;99.90;;;;;;5056586;28;20455;-67
2022/01/07 04:00:06;;;;;;;4.60;2.27;;;3.70;99.90;;;;;;5061455;28;20516;-67
2022/01/07 04:02:33;;;;;;;1.37;1.27;;;3.50;99.90;;;;;;5017058;28;20478;-68
2022/01/07 04:05:01;;;;;;;8.13;3.93;;;3.50;99.90;;;;;;5030133;28;20466;-66
2022/01/07 04:07:30;;;;;;;2.57;2.10;;;3.50;99.90;;;;;;5051994;28;20504;-67
2022/01/07 04:09:58;;;;;;;2.53;2.07;;;3.40;99.90;;;;;;5057720;28;20792;-67
2022/01/07 04:12:25;;;;;;;3.23;2.20;;;3.40;99.90;;;;;;5057986;28;21048;-68
2022/01/07 04:15:03;;;;;;;3.27;2.60;;;3.40;99.90;;;;;;5055007;28;20486;-68
2022/01/07 04:17:30;;;;;;;8.97;2.03;;;3.30;99.90;;;;;;5053666;28;20465;-68
2022/01/07 04:19:57;;;;;;;2.43;2.23;;;3.20;99.90;;;;;;5057856;28;21035;-69
2022/01/07 04:22:25;;;;;;;1.00;0.80;;;3.20;99.90;;;;;;5051269;28;20901;-69
2022/01/07 04:24:52;;;;;;;3.20;1.97;;;3.20;99.90;;;;;;5057637;28;20823;-69
2022/01/07 04:27:20;;;;;;;2.90;1.80;;;3.30;99.90;;;;;;5060564;28;20482;-70
2022/01/07 04:29:47;;;;;;;1.07;0.80;;;3.40;99.90;;;;;;5059412;28;22212;-68
2022/01/07 04:32:14;;;;;;;3.47;1.33;;;3.40;99.90;;;;;;5056140;28;24420;-68
2022/01/07 04:34:41;;;;;;;2.07;1.57;;;3.40;99.90;;;;;;5060339;28;20425;-68
2022/01/07 04:37:07;;;;;;;3.30;3.00;;;3.40;99.90;;;;;;5064206;28;20951;-68
2022/01/07 04:39:36;;;;;;;2.07;1.47;;;3.40;99.90;;;;;;5056978;28;20508;-68
2022/01/07 04:42:03;;;;;;;1.70;1.30;;;3.40;99.90;;;;;;5059199;28;21008;-68
2022/01/07 04:44:30;;;;;;;5.80;1.83;;;3.50;99.90;;;;;;5053127;28;21056;-68
2022/01/07 04:46:57;;;;;;;3.00;1.47;;;3.50;99.90;;;;;;5059174;28;20512;-68
2022/01/07 04:49:24;;;;;;;2.23;2.03;;;3.50;99.90;;;;;;5056598;28;22521;-69
2022/01/07 04:51:51;;;;;;;3.07;2.53;;;3.50;99.90;;;;;;5052695;28;20465;-69
2022/01/07 04:54:18;;;;;;;4.03;1.50;;;3.60;99.90;;;;;;5054846;28;20469;-68
2022/01/07 04:56:48;;;;;;;7.37;1.80;;;3.60;99.90;;;;;;5058603;28;20809;-69
2022/01/07 04:59:15;;;;;;;4.03;1.50;;;3.60;99.90;;;;;;5053979;28;20831;-68
2022/01/07 05:01:42;;;;;;;3.00;1.53;;;3.50;99.90;;;;;;5061862;28;20948;-67
2022/01/07 05:04:09;;;;;;;2.27;1.60;;;3.50;99.90;;;;;;5045853;28;20449;-68
2022/01/07 05:06:45;;;;;;;3.53;2.40;;;3.50;99.90;;;;;;5053034;28;20516;-68
2022/01/07 05:09:16;;;;;;;1.80;1.37;;;3.50;99.90;;;;;;5059618;28;20525;-68
2022/01/07 05:11:43;;;;;;;1.70;1.60;;;3.50;99.90;;;;;;5058538;28;20437;-68
2022/01/07 05:14:12;;;;;;;5.00;1.00;;;3.60;99.90;;;;;;5051364;28;20504;-69
2022/01/07 05:16:39;;;;;;;4.00;2.07;;;3.60;99.90;;;;;;5052432;28;20437;-68
2022/01/07 05:19:06;;;;;;;2.10;1.17;;;3.60;99.90;;;;;;5058506;28;20480;-68
2022/01/07 05:21:33;;;;;;;3.90;2.30;;;3.70;99.90;;;;;;5055972;28;21340;-68
2022/01/07 05:24:00;;;;;;;1.00;0.87;;;3.70;99.90;;;;;;5057464;28;20449;-68
2022/01/07 05:26:27;;;;;;;1.00;0.80;;;3.80;99.90;;;;;;5060522;28;20507;-69
2022/01/07 05:28:54;;;;;;;1.97;1.30;;;3.80;99.90;;;;;;5065447;28;20489;-69
2022/01/07 05:31:23;;;;;;;11.50;2.50;;;3.80;99.90;;;;;;5061600;28;20506;-68
2022/01/07 05:33:51;;;;;;;2.00;1.83;;;3.70;99.90;;;;;;5060639;28;20493;-68
2022/01/07 05:36:19;;;;;;;2.50;1.90;;;3.80;99.90;;;;;;5071764;28;20467;-67
2022/01/07 05:38:47;;;;;;;6.87;1.10;;;3.80;99.90;;;;;;5069607;28;20913;-70
2022/01/07 05:41:14;;;;;;;1.50;1.10;;;3.70;99.90;;;;;;5056172;28;20456;-67
2022/01/07 05:43:42;;;;;;;11.03;1.50;;;3.80;99.90;;;;;;5065400;28;20964;-69
2022/01/07 05:46:10;;;;;;;1.40;0.90;;;3.80;99.90;;;;;;5068742;28;20433;-69
2022/01/07 05:48:39;;;;;;;3.63;1.80;;;3.80;99.90;;;;;;5056797;28;20461;-69
2022/01/07 05:51:07;;;;;;;2.57;1.40;;;3.80;99.90;;;;;;5066457;28;20460;-69
2022/01/07 05:53:34;;;;;;;2.23;1.60;;;3.70;99.90;;;;;;5072302;28;20460;-69
2022/01/07 05:56:01;;;;;;;1.90;1.80;;;3.90;99.90;;;;;;5066094;28;20554;-69
2022/01/07 05:58:28;;;;;;;2.23;2.03;;;4.00;99.90;;;;;;5072098;28;20485;-69
2022/01/07 06:00:55;;;;;;;4.03;1.83;;;3.90;99.90;;;;;;5064252;28;20463;-69
2022/01/07 06:03:22;;;;;;;7.40;3.03;;;3.70;99.90;;;;;;5061476;28;20555;-69
2022/01/07 06:05:50;;;;;;;3.23;1.67;;;3.60;99.90;;;;;;5067533;28;20540;-69
2022/01/07 06:08:17;;;;;;;3.43;1.93;;;3.50;99.90;;;;;;5065350;28;20545;-69
2022/01/07 06:10:44;;;;;;;1.63;1.00;;;3.50;99.90;;;;;;5054944;28;20466;-69
2022/01/07 06:13:11;;;;;;;2.70;2.17;;;3.50;99.90;;;;;;5062221;28;20630;-69
2022/01/07 06:15:38;;;;;;;2.30;1.73;;;3.50;99.90;;;;;;5055492;28;20511;-69
2022/01/07 06:18:05;;;;;;;2.00;1.30;;;3.30;99.90;;;;;;5055450;28;20520;-69
2022/01/07 06:20:33;;;;;;;2.03;1.70;;;3.20;99.90;;;;;;5058379;28;20477;-68
2022/01/07 06:23:02;;;;;;;2.50;1.53;;;3.20;99.90;;;;;;5057603;28;20474;-69
2022/01/07 06:25:29;;;;;;;1.73;1.63;;;3.20;99.90;;;;;;5044752;28;20841;-69
2022/01/07 06:27:57;;;;;;;8.17;2.30;;;3.20;99.90;;;;;;5056450;28;20549;-69
2022/01/07 06:30:24;;;;;;;1.30;1.10;;;3.10;99.90;;;;;;5050318;28;20548;-68
2022/01/07 06:32:52;;;;;;;2.00;1.80;;;3.10;99.90;;;;;;5052483;28;20535;-68
2022/01/07 06:35:19;;;;;;;6.57;1.93;;;3.00;99.90;;;;;;5050750;28;20461;-68
2022/01/07 06:37:46;;;;;;;6.43;2.97;;;3.10;99.90;;;;;;5048316;28;21459;-68
2022/01/07 06:40:15;;;;;;;1.40;1.30;;;3.20;99.90;;;;;;5050969;28;20524;-68
2022/01/07 06:42:42;;;;;;;3.00;1.63;;;3.20;99.90;;;;;;5054797;28;20468;-67
2022/01/07 06:45:10;;;;;;;1.10;1.00;;;3.20;99.90;;;;;;5040663;28;20571;-68
2022/01/07 06:47:37;;;;;;;1.37;1.27;;;3.20;99.90;;;;;;5043556;28;20441;-68
2022/01/07 06:50:06;;;;;;;3.03;2.20;;;3.20;99.90;;;;;;5043666;28;20433;-68
2022/01/07 06:52:33;;;;;;;8.77;2.10;;;3.30;99.90;;;;;;5052415;28;20665;-67
2022/01/07 06:55:00;;;;;;;1.57;1.47;;;3.30;99.90;;;;;;5049213;28;20982;-68
2022/01/07 06:57:29;;;;;;;1.53;1.43;;;3.40;99.90;;;;;;5047441;28;20593;-69
2022/01/07 06:59:55;;;;;;;2.70;1.90;;;3.40;99.90;;;;;;5027321;28;20467;-69
2022/01/07 07:02:23;;;;;;;1.80;1.43;;;3.40;99.90;;;;;;5027385;28;20482;-69
2022/01/07 07:04:50;;;;;;;1.20;1.00;;;3.30;99.90;;;;;;5050083;28;20532;-68
2022/01/07 07:07:17;;;;;;;2.47;1.53;;;3.30;99.90;;;;;;5047017;28;20610;-68
2022/01/07 07:09:44;;;;;;;3.30;1.70;;;3.40;99.90;;;;;;5057489;28;20707;-69
2022/01/07 07:12:12;;;;;;;1.50;1.17;;;3.40;99.90;;;;;;5052753;28;20461;-69
2022/01/07 07:14:41;;;;;;;2.27;2.07;;;3.40;99.90;;;;;;5037519;28;20481;-69
2022/01/07 07:17:08;;;;;;;2.70;1.40;;;3.50;99.90;;;;;;5044189;28;20540;-68
2022/01/07 07:19:35;;;;;;;2.90;1.20;;;3.40;99.90;;;;;;5058561;28;20569;-69
2022/01/07 07:22:02;;;;;;;1.40;1.30;;;3.50;99.90;;;;;;5053260;28;20433;-69
2022/01/07 07:24:29;;;;;;;1.47;1.37;;;3.50;99.90;;;;;;5052580;28;20970;-69
2022/01/07 07:26:57;;;;;;;18.93;2.70;;;3.50;99.90;;;;;;5053208;28;20524;-69
2022/01/07 07:29:24;;;;;;;1.73;1.43;;;3.50;99.90;;;;;;5050333;28;20450;-69
2022/01/07 07:31:56;;;;;;;1.30;1.20;;;3.70;99.90;;;;;;5055480;28;21048;-69
2022/01/07 07:34:54;;;;;;;2.00;1.80;;;3.70;99.90;;;;;;5060662;28;20457;-68
2022/01/07 07:37:20;;;;;;;3.43;2.47;;;3.70;99.90;;;;;;5051601;28;20424;-69
2022/01/07 07:39:47;;;;;;;2.00;1.83;;;3.80;99.90;;;;;;5045360;28;20472;-68
2022/01/07 07:42:14;;;;;;;2.50;2.30;;;3.80;99.90;;;;;;5049892;28;21059;-70
2022/01/07 07:44:41;;;;;;;6.00;1.50;;;3.70;99.90;;;;;;5045369;28;20458;-67
2022/01/07 07:47:10;;;;;;;3.40;2.20;;;3.70;99.90;;;;;;5052167;28;21018;-69
2022/01/07 07:49:39;;;;;;;5.63;2.73;;;3.70;99.90;;;;;;5044230;28;20855;-68
2022/01/07 07:52:06;;;;;;;3.70;3.40;;;3.80;99.90;;;;;;5036449;28;21027;-70
2022/01/07 07:54:33;;;;;;;2.33;2.00;;;3.80;99.90;;;;;;5037924;28;20459;-70
2022/01/07 07:57:00;;;;;;;1.50;1.40;;;3.90;99.90;;;;;;5042086;28;20428;-68
2022/01/07 07:59:27;;;;;;;5.93;2.63;;;3.80;99.90;;;;;;5043736;28;20425;-69
2022/01/07 08:01:54;;;;;;;2.77;2.57;;;3.90;99.90;;;;;;5049663;28;20655;-69
2022/01/07 08:04:23;;;;;;;5.30;2.60;;;4.00;99.90;;;;;;5051046;28;20560;-68
2022/01/07 08:06:51;;;;;;;2.83;2.50;;;3.90;99.90;;;;;;5050552;28;20436;-69
2022/01/07 08:09:18;;;;;;;8.73;2.40;;;4.00;99.90;;;;;;5052392;28;20783;-68
2022/01/07 08:11:53;;;;;;;3.53;2.20;;;4.00;99.90;;;;;;5052151;28;20445;-69
2022/01/07 08:17:07;;;;;;;3.37;1.47;;;4.00;99.90;;;;;;5038132;28;20534;-68
2022/01/07 08:19:36;;;;;;;1.53;1.43;;;4.20;99.90;;;;;;5049316;28;20454;-69
2022/01/07 08:22:04;;;;;;;24.13;2.07;;;4.10;99.90;;;;;;5061128;28;20425;-69
2022/01/07 08:24:31;;;;;;;3.63;2.47;;;4.10;99.90;;;;;;5061870;28;21645;-69
2022/01/07 08:26:58;;;;;;;6.40;3.93;;;4.10;99.90;;;;;;5062659;28;20478;-68
2022/01/07 08:29:30;;;;;;;2.33;2.13;;;4.10;99.90;;;;;;5066972;28;20802;-69
2022/01/07 08:34:57;;;;;;;11.03;3.80;;;4.20;99.90;;;;;;5059023;28;20462;-69
2022/01/07 08:37:27;;;;;;;2.30;1.93;;;4.20;99.90;;;;;;5062994;28;20439;-69
2022/01/07 08:39:56;;;;;;;3.00;2.70;;;4.10;99.90;;;;;;5061012;28;20425;-69
2022/01/07 08:42:24;;;;;;;2.33;2.13;;;4.10;99.90;;;;;;5059525;28;21015;-69
2022/01/07 08:44:53;;;;;;;3.50;2.73;;;4.20;99.90;;;;;;5067135;28;20457;-71
2022/01/07 08:47:23;;;;;;;3.23;2.27;;;4.10;99.90;;;;;;5057916;28;20781;-69
2022/01/07 08:49:52;;;;;;;2.30;2.10;;;4.20;99.90;;;;;;5050871;28;20544;-71
2022/01/07 08:52:21;;;;;;;3.53;2.47;;;4.30;99.90;;;;;;5059258;28;20572;-68
2022/01/07 08:54:50;;;;;;;2.70;2.33;;;4.30;99.90;;;;;;5059205;28;21175;-69
2022/01/07 08:57:19;;;;;;;4.63;3.43;;;4.30;99.90;;;;;;5062041;28;20525;-69
2022/01/07 08:59:45;;;;;;;2.50;1.97;;;4.40;99.90;;;;;;5055032;28;20533;-69
2022/01/07 09:02:13;;;;;;;3.53;1.90;;;4.50;99.90;;;;;;5066490;28;20530;-70
2022/01/07 09:04:40;;;;;;;2.70;1.80;;;4.50;99.90;;;;;;5049384;28;21634;-70
2022/01/07 09:07:08;;;;;;;1.53;1.43;;;4.50;99.90;;;;;;5059992;28;20610;-71
2022/01/07 09:09:35;;;;;;;3.90;1.90;;;4.50;99.90;;;;;;5059663;28;20465;-70
2022/01/07 09:12:02;;;;;;;2.13;1.50;;;4.50;99.90;;;;;;5064554;28;21085;-70
2022/01/07 09:14:29;;;;;;;2.80;2.13;;;4.50;99.90;;;;;;5064834;28;20433;-70
2022/01/07 09:16:56;;;;;;;2.50;1.60;;;4.50;99.90;;;;;;5056880;28;20466;-70
2022/01/07 09:19:23;;;;;;;2.70;2.27;;;4.70;99.90;;;;;;5063449;28;21021;-71
2022/01/07 09:21:50;;;;;;;3.57;2.27;;;4.70;99.90;;;;;;5064804;28;20912;-70
2022/01/07 09:24:19;;;;;;;2.90;1.90;;;4.80;99.90;;;;;;5053317;28;21767;-70
2022/01/07 09:26:46;;;;;;;3.60;1.80;;;4.80;99.90;;;;;;5064427;28;20863;-70
2022/01/07 09:29:15;;;;;;;5.33;2.60;;;4.80;99.90;;;;;;5061108;28;20921;-69
2022/01/07 09:31:42;;;;;;;2.53;1.83;;;4.90;99.90;;;;;;5057936;28;20517;-70
2022/01/07 09:34:09;;;;;;;3.73;3.23;;;4.90;99.90;;;;;;5059568;28;20457;-70
2022/01/07 09:36:36;;;;;;;1.50;1.40;;;4.90;99.90;;;;;;5053380;28;20508;-70
2022/01/07 09:39:03;;;;;;;3.73;2.90;;;4.90;99.90;;;;;;5063297;28;20428;-71
2022/01/07 09:41:32;;;;;;;1.07;0.87;;;4.90;99.90;;;;;;5069484;28;20461;-70
2022/01/07 09:44:01;;;;;;;8.33;3.93;;;4.90;99.90;;;;;;5060254;28;20838;-71
2022/01/07 09:46:30;;;;;;;2.63;2.43;;;5.00;99.90;;;;;;5056517;28;20945;-70
2022/01/07 09:48:57;;;;;;;1.20;1.10;;;4.90;99.90;;;;;;5051735;28;21828;-70
2022/01/07 09:51:26;;;;;;;5.10;2.07;;;5.00;99.90;;;;;;5059811;28;20571;-71
2022/01/07 09:53:53;;;;;;;2.90;2.00;;;5.10;99.90;;;;;;5060928;28;20481;-70
2022/01/07 09:56:20;;;;;;;3.03;2.10;;;5.10;99.90;;;;;;5068140;28;20527;-69
2022/01/07 09:58:48;;;;;;;2.73;1.90;;;5.20;99.90;;;;;;5061757;28;20497;-68
2022/01/07 10:01:19;;;;;;;3.47;2.77;;;5.20;99.90;;;;;;5066458;28;20433;-69
2022/01/07 10:03:46;;;;;;;4.70;1.70;;;5.20;99.90;;;;;;5062738;28;20948;-68
2022/01/07 10:06:18;;;;;;;3.37;1.73;;;5.10;99.90;;;;;;5067587;28;20633;-69
2022/01/07 10:08:59;;;;;;;1.93;1.83;;;5.00;99.90;;;;;;5063642;28;20479;-69
2022/01/07 10:11:27;;;;;;;3.73;2.40;;;5.00;99.90;;;;;;5053432;28;20850;-69
2022/01/07 10:14:18;;;;;;;3.53;1.73;;;5.10;99.90;;;;;;5048593;28;20585;-68
2022/01/07 10:16:50;;;;;;;3.10;2.70;;;5.20;99.90;;;;;;5061358;28;20494;-69
2022/01/07 10:19:33;;;;;;;2.80;1.67;;;5.10;99.90;;;;;;5065568;28;21005;-68
2022/01/07 10:22:02;;;;;;;2.87;2.67;;;5.10;99.90;;;;;;5066040;28;20440;-68
2022/01/07 10:24:30;;;;;;;2.90;1.77;;;5.00;99.90;;;;;;5052966;28;20461;-68
2022/01/07 10:27:10;;;;;;;2.90;1.60;;;5.10;99.90;;;;;;5052715;28;21200;-68
2022/01/07 10:29:40;;;;;;;1.93;1.30;;;5.10;99.90;;;;;;5061204;28;21075;-68
2022/01/07 10:32:29;;;;;;;1.23;1.13;;;5.10;99.90;;;;;;5059690;28;20498;-68
2022/01/07 10:35:10;;;;;;;2.27;2.07;;;5.10;99.90;;;;;;5051684;28;20459;-71
2022/01/07 10:37:45;;;;;;;2.27;2.07;;;5.20;99.90;;;;;;5062323;28;20523;-68
2022/01/07 10:40:34;;;;;;;2.43;2.23;;;5.20;99.90;;;;;;5064841;28;20461;-68
2022/01/07 10:43:17;;;;;;;2.10;1.63;;;5.20;99.90;;;;;;5066479;28;20876;-68
2022/01/07 10:45:47;;;;;;;2.33;1.43;;;5.20;99.90;;;;;;5064595;28;20436;-69
2022/01/07 10:48:18;;;;;;;2.50;1.90;;;5.10;99.90;;;;;;5050361;28;20516;-69
2022/01/07 10:50:50;;;;;;;1.47;1.37;;;5.20;99.90;;;;;;5056453;28;20461;-69
2022/01/07 10:53:24;;;;;;;2.00;1.83;;;5.20;99.90;;;;;;5059349;28;20804;-70
2022/01/07 10:56:09;;;;;;;2.80;1.47;;;5.30;99.90;;;;;;5066535;28;20536;-69
2022/01/07 10:58:55;;;;;;;6.30;2.30;;;5.40;99.90;;;;;;5058333;28;20432;-70
2022/01/07 11:01:35;;;;;;;2.40;1.97;;;5.30;99.90;;;;;;5062803;28;20512;-70
2022/01/07 11:04:05;;;;;;;1.50;1.30;;;5.40;99.90;;;;;;5052122;28;20478;-69
2022/01/07 11:06:32;;;;;;;1.70;1.60;;;5.30;99.90;;;;;;5059541;28;20443;-70
2022/01/07 11:09:00;;;;;;;4.40;1.87;;;5.40;99.90;;;;;;5061498;28;20493;-69
2022/01/07 11:11:29;;;;;;;1.40;1.30;;;5.30;99.90;;;;;;5058242;28;20495;-68
2022/01/07 11:14:01;;;;;;;1.80;1.60;;;5.30;99.90;;;;;;5061059;28;20492;-68
2022/01/07 11:16:29;;;;;;;1.00;0.90;;;5.40;99.90;;;;;;5049386;28;20979;-68
2022/01/07 11:18:58;;;;;;;1.67;1.50;;;5.40;99.90;;;;;;5031772;28;20455;-68
2022/01/07 11:21:25;;;;;;;1.53;1.43;;;5.30;99.90;;;;;;5040898;28;21043;-69
2022/01/07 11:23:52;;;;;;;3.03;2.37;;;5.40;99.90;;;;;;5036537;28;20911;-69
2022/01/07 11:26:19;;;;;;;2.57;1.77;;;5.40;99.90;;;;;;5035197;28;20536;-68
2022/01/07 11:28:58;;;;;;;2.60;2.37;;;5.60;99.90;;;;;;5042306;28;20436;-69
2022/01/07 11:31:26;;;;;;;3.40;2.63;;;5.70;99.90;;;;;;5037163;28;20504;-69
2022/01/07 11:34:25;;;;;;;2.63;2.43;;;5.70;99.90;;;;;;5035043;28;20470;-68
2022/01/07 11:36:53;;;;;;;2.13;1.93;;;5.70;99.90;;;;;;5037382;28;20453;-68
2022/01/07 11:39:23;;;;;;;1.40;1.30;;;5.80;99.90;;;;;;5042716;28;21031;-67
2022/01/07 11:41:55;;;;;;;1.30;1.20;;;5.60;99.90;;;;;;5041032;28;20471;-68
2022/01/07 11:44:26;;;;;;;4.17;1.90;;;5.70;99.90;;;;;;5036558;28;20460;-68
2022/01/07 11:47:21;;;;;;;2.80;1.97;;;5.70;99.90;;;;;;5035099;28;20480;-66
2022/01/07 11:50:02;;;;;;;1.63;1.20;;;5.70;99.90;;;;;;5038867;28;20631;-69
2022/01/07 11:52:33;;;;;;;1.43;1.33;;;5.90;99.90;;;;;;5032990;28;21528;-68
2022/01/07 11:55:27;;;;;;;2.17;1.47;;;6.00;99.90;;;;;;5034963;28;20447;-68
2022/01/07 11:58:02;;;;;;;1.60;1.40;;;5.90;99.90;;;;;;5032368;28;20436;-69
2022/01/07 12:00:48;;;;;;;1.87;1.47;;;5.90;99.90;;;;;;5041051;28;20902;-69
2022/01/07 12:03:31;;;;;;;2.90;1.80;;;5.80;99.90;;;;;;5041273;28;20481;-69
2022/01/07 12:06:00;;;;;;;3.90;1.50;;;5.70;99.90;;;;;;5040316;28;20460;-69
2022/01/07 12:08:40;;;;;;;3.47;2.93;;;5.60;99.90;;;;;;5037350;28;20608;-68
2022/01/07 12:11:08;;;;;;;2.43;1.63;;;5.60;99.90;;;;;;5034620;28;20460;-68
2022/01/07 12:13:38;;;;;;;2.30;1.80;;;5.80;99.90;;;;;;5036310;28;20483;-68
2022/01/07 12:16:06;;;;;;;2.60;2.20;;;6.00;99.90;;;;;;5035657;28;20435;-68
2022/01/07 12:18:34;;;;;;;4.40;4.10;;;6.10;99.90;;;;;;5035912;28;20447;-68
2022/01/07 12:21:03;;;;;;;3.93;1.87;;;6.10;99.90;;;;;;5043937;28;20501;-68
2022/01/07 12:23:31;;;;;;;1.43;1.20;;;6.00;99.90;;;;;;5036566;28;20589;-68
2022/01/07 12:26:03;;;;;;;2.97;2.57;;;5.90;99.90;;;;;;5040132;28;20980;-69
2022/01/07 12:28:37;;;;;;;2.43;1.50;;;5.80;99.90;;;;;;5046269;28;20444;-68
2022/01/07 12:31:08;;;;;;;3.67;1.83;;;5.70;99.90;;;;;;5053917;28;20927;-68
2022/01/07 12:33:36;;;;;;;2.97;2.30;;;5.70;99.90;;;;;;5046485;28;20541;-68
2022/01/07 12:36:05;;;;;;;2.00;1.87;;;5.80;99.90;;;;;;5051089;28;20929;-70
2022/01/07 12:38:32;;;;;;;2.43;2.03;;;5.80;99.90;;;;;;5052853;28;20490;-71
2022/01/07 12:41:01;;;;;;;2.10;1.80;;;5.90;99.90;;;;;;5050233;28;20483;-69
2022/01/07 12:43:34;;;;;;;1.30;1.20;;;5.90;99.90;;;;;;5058206;28;20519;-67
2022/01/07 12:46:03;;;;;;;1.30;1.17;;;5.90;99.90;;;;;;5052185;28;20458;-68
2022/01/07 12:48:34;;;;;;;3.97;1.70;;;6.00;99.90;;;;;;5055595;28;20449;-68
2022/01/07 12:51:04;;;;;;;2.53;1.70;;;5.90;99.90;;;;;;5040783;28;20470;-68
2022/01/07 12:53:31;;;;;;;1.80;1.70;;;6.10;99.90;;;;;;5056073;28;20479;-69
2022/01/07 12:56:23;;;;;;;2.57;2.00;;;6.10;99.90;;;;;;5055596;28;20457;-69
2022/01/07 12:58:50;;;;;;;2.03;1.40;;;6.00;99.90;;;;;;5059804;28;20623;-69
2022/01/07 13:01:25;;;;;;;1.40;1.30;;;6.00;99.90;;;;;;5053712;28;20548;-68
2022/01/07 13:04:03;;;;;;;1.47;1.37;;;6.00;99.90;;;;;;5060399;28;20905;-68
2022/01/07 13:06:32;;;;;;;1.47;1.30;;;6.00;99.90;;;;;;5059999;28;21220;-68
2022/01/07 13:08:59;;;;;;;3.03;1.77;;;6.10;99.90;;;;;;5063296;28;20464;-68
2022/01/07 13:11:26;;;;;;;1.97;1.77;;;6.10;99.90;;;;;;5060259;28;20482;-69
2022/01/07 13:14:03;;;;;;;2.87;1.67;;;6.30;99.90;;;;;;5060501;28;20547;-69